Time;durP1;ratioP1;P1;durP2;ratioP2;P2;SDS_P1;SDS_P2;PMS_P1;PMS_P2;Temp;Humidity;BMP_temperature;BMP_pressure;BME280_temperature;BME280_humidity;BME280_pressure;Samples;Min_cycle;Max_cycle;Signal;HPM_P1;HPM_P2
2022/04/10 00:00:03;;;;;;;;;;;;;;;;;;5050538;28;1316;-68
2022/04/10 00:02:38;;;;;;;;;;;;;;;;;;5050307;28;695;-68
2022/04/10 00:05:05;;;;;;;;;;;;;;;;;;5050284;28;790;-68
2022/04/10 00:07:33;;;;;;;;;;;;;;;;;;5050091;28;1922;-68
2022/04/10 00:09:59;;;;;;;;;;;;;;;;;;5050106;28;1297;-68
2022/04/10 00:12:25;;;;;;;;;;;;;;;;;;5050140;28;1149;-68
2022/04/10 00:14:51;;;;;;;;;;;;;;;;;;5050287;28;885;-68
2022/04/10 00:17:18;;;;;;;;;;;;;;;;;;5049927;28;1008;-68
2022/04/10 00:19:45;;;;;;;;;;;;;;;;;;5049512;28;1585;-68
2022/04/10 00:22:12;;;;;;;;;;;;;;;;;;5049829;28;1063;-68
2022/04/10 00:24:39;;;;;;;;;;;;;;;;;;5052092;28;1055;-68
2022/04/10 00:27:06;;;;;;;;;;;;;;;;;;5053262;28;1896;-68
2022/04/10 00:29:32;;;;;;;;;;;;;;;;;;5053435;28;1294;-68
2022/04/10 00:31:59;;;;;;;;;;;;;;;;;;5052643;28;1539;-68
2022/04/10 00:34:25;;;;;;;;;;;;;;;;;;5052513;28;1635;-68
2022/04/10 00:36:51;;;;;;;;;;;;;;;;;;5052085;28;1286;-68
2022/04/10 00:39:18;;;;;;;;;;;;;;;;;;5051434;28;1428;-68
2022/04/10 00:41:46;;;;;;;;;;;;;;;;;;5052299;28;941;-68
2022/04/10 00:44:12;;;;;;;;;;;;;;;;;;5052321;28;1647;-69
2022/04/10 00:46:38;;;;;;;;;;;;;;;;;;5052059;28;1919;-68
2022/04/10 00:49:05;;;;;;;;;;;;;;;;;;5051772;28;1340;-67
2022/04/10 00:51:41;;;;;;;;;;;;;;;;;;5051835;28;1117;-69
2022/04/10 00:54:08;;;;;;;;;;;;;;;;;;5053380;28;1068;-68
2022/04/10 00:56:35;;;;;;;;;;;;;;;;;;5051596;28;886;-68
2022/04/10 00:59:02;;;;;;;;;;;;;;;;;;5051774;28;1426;-68
2022/04/10 01:01:29;;;;;;;;;;;;;;;;;;5052289;28;1368;-68
2022/04/10 01:03:55;;;;;;;;;;;;;;;;;;5052011;28;1451;-68
2022/04/10 01:06:22;;;;;;;;;;;;;;;;;;5052887;28;1920;-68
2022/04/10 01:08:48;;;;;;;;;;;;;;;;;;5055605;28;1346;-68
2022/04/10 01:11:15;;;;;;;;;;;;;;;;;;5056544;28;1084;-68
2022/04/10 01:13:41;;;;;;;;;;;;;;;;;;5051962;28;1220;-68
2022/04/10 01:16:10;;;;;;;;;;;;;;;;;;5051358;28;1449;-67
2022/04/10 01:18:36;;;;;;;;;;;;;;;;;;5051735;28;1363;-68
2022/04/10 01:21:04;;;;;;;;;;;;;;;;;;5051395;28;1305;-69
2022/04/10 01:23:33;;;;;;;;;;;;;;;;;;5051149;28;1184;-68
2022/04/10 01:25:59;;;;;;;;;;;;;;;;;;5051499;28;1918;-68
2022/04/10 01:28:26;;;;;;;;;;;;;;;;;;5051146;28;1184;-69
2022/04/10 01:30:52;;;;;;;;;;;;;;;;;;5051303;28;1333;-68
2022/04/10 01:33:18;;;;;;;;;;;;;;;;;;5052365;28;1112;-68
2022/04/10 01:35:44;;;;;;;;;;;;;;;;;;5051538;28;838;-68
2022/04/10 01:38:14;;;;;;;;;;;;;;;;;;5050860;28;1050;-68
2022/04/10 01:40:48;;;;;;;;;;;;;;;;;;5050971;28;1459;-68
2022/04/10 01:43:14;;;;;;;;;;;;;;;;;;5050701;28;1663;-68
2022/04/10 01:45:41;;;;;;;;;;;;;;;;;;5051169;28;1682;-68
2022/04/10 01:48:07;;;;;;;;;;;;;;;;;;5050729;28;1922;-67
2022/04/10 01:50:34;;;;;;;;;;;;;;;;;;5050703;28;1318;-68
2022/04/10 01:53:03;;;;;;;;;;;;;;;;;;5050606;28;1171;-68
2022/04/10 01:55:29;;;;;;;;;;;;;;;;;;5050851;28;1206;-68
2022/04/10 01:57:57;;;;;;;;;;;;;;;;;;5051787;28;802;-68
2022/04/10 02:00:24;;;;;;;;;;;;;;;;;;5050763;28;1536;-68
2022/04/10 02:02:50;;;;;;;;;;;;;;;;;;5050854;28;1299;-68
2022/04/10 02:05:16;;;;;;;;;;;;;;;;;;5051810;28;1054;-68
2022/04/10 02:07:43;;;;;;;;;;;;;;;;;;5049966;28;1910;-68
2022/04/10 02:10:09;;;;;;;;;;;;;;;;;;5050079;28;1340;-68
2022/04/10 02:12:36;;;;;;;;;;;;;;;;;;5050108;28;1550;-68
2022/04/10 02:15:03;;;;;;;;;;;;;;;;;;5050512;28;1161;-68
2022/04/10 02:17:30;;;;;;;;;;;;;;;;;;5051250;28;845;-68
2022/04/10 02:19:56;;;;;;;;;;;;;;;;;;5050381;28;1325;-68
2022/04/10 02:22:22;;;;;;;;;;;;;;;;;;5050202;28;877;-68
2022/04/10 02:24:49;;;;;;;;;;;;;;;;;;5050347;28;1666;-68
2022/04/10 02:27:17;;;;;;;;;;;;;;;;;;5050897;28;1973;-68
2022/04/10 02:29:43;;;;;;;;;;;;;;;;;;5049833;28;1339;-68
2022/04/10 02:32:11;;;;;;;;;;;;;;;;;;5045230;28;2003;-68
2022/04/10 02:34:38;;;;;;;;;;;;;;;;;;5049885;28;1078;-68
2022/04/10 02:37:04;;;;;;;;;;;;;;;;;;5049630;28;1546;-69
2022/04/10 02:39:30;;;;;;;;;;;;;;;;;;5049822;28;1336;-68
2022/04/10 02:41:57;;;;;;;;;;;;;;;;;;5049850;28;1511;-69
2022/04/10 02:44:23;;;;;;;;;;;;;;;;;;5050198;28;1183;-68
2022/04/10 02:46:49;;;;;;;;;;;;;;;;;;5049473;28;2062;-68
2022/04/10 02:49:17;;;;;;;;;;;;;;;;;;5050561;28;1490;-67
2022/04/10 02:51:46;;;;;;;;;;;;;;;;;;5049790;28;1597;-68
2022/04/10 02:54:13;;;;;;;;;;;;;;;;;;5049848;28;811;-68
2022/04/10 02:56:39;;;;;;;;;;;;;;;;;;5049377;28;1171;-68
2022/04/10 02:59:05;;;;;;;;;;;;;;;;;;5050699;28;1321;-68
2022/04/10 03:01:32;;;;;;;;;;;;;;;;;;5049878;28;1423;-68
2022/04/10 03:03:59;;;;;;;;;;;;;;;;;;5051043;28;778;-67
2022/04/10 03:06:26;;;;;;;;;;;;;;;;;;5049373;28;1924;-68
2022/04/10 03:08:52;;;;;;;;;;;;;;;;;;5049285;28;1336;-68
2022/04/10 03:11:19;;;;;;;;;;;;;;;;;;5050288;28;862;-68
2022/04/10 03:13:46;;;;;;;;;;;;;;;;;;5049621;28;1507;-68
2022/04/10 03:16:12;;;;;;;;;;;;;;;;;;5049241;28;1536;-68
2022/04/10 03:18:39;;;;;;;;;;;;;;;;;;5049265;28;1407;-68
2022/04/10 03:21:05;;;;;;;;;;;;;;;;;;5050668;28;1309;-68
2022/04/10 03:23:33;;;;;;;;;;;;;;;;;;5049411;28;1452;-68
2022/04/10 03:25:59;;;;;;;;;;;;;;;;;;5049351;28;1853;-68
2022/04/10 03:28:25;;;;;;;;;;;;;;;;;;5049042;28;1978;-68
2022/04/10 03:30:52;;;;;;;;;;;;;;;;;;5049274;28;1340;-68
2022/04/10 03:33:19;;;;;;;;;;;;;;;;;;5049212;28;1672;-68
2022/04/10 03:35:46;;;;;;;;;;;;;;;;;;5049604;28;1469;-67
2022/04/10 03:38:12;;;;;;;;;;;;;;;;;;5049097;28;1161;-68
2022/04/10 03:40:40;;;;;;;;;;;;;;;;;;5049222;28;1372;-68
2022/04/10 03:43:06;;;;;;;;;;;;;;;;;;5049244;28;1364;-68
2022/04/10 03:45:33;;;;;;;;;;;;;;;;;;5048977;28;1186;-68
2022/04/10 03:47:59;;;;;;;;;;;;;;;;;;5049088;28;1976;-68
2022/04/10 03:50:29;;;;;;;;;;;;;;;;;;5049096;28;1794;-66
2022/04/10 03:52:56;;;;;;;;;;;;;;;;;;5048785;28;1162;-68
2022/04/10 03:55:23;;;;;;;;;;;;;;;;;;5049073;28;1331;-68
2022/04/10 03:57:53;;;;;;;;;;;;;;;;;;5048894;28;1466;-67
2022/04/10 04:00:19;;;;;;;;;;;;;;;;;;5052031;28;2093;-68
2022/04/10 04:02:53;;;;;;;;;;;;;;;;;;5053112;28;1370;-68
2022/04/10 04:05:25;;;;;;;;;;;;;;;;;;5052563;28;1523;-68
2022/04/10 04:07:52;;;;;;;;;;;;;;;;;;5053045;28;1918;-68
2022/04/10 04:10:20;;;;;;;;;;;;;;;;;;5052728;28;1423;-67
2022/04/10 04:12:46;;;;;;;;;;;;;;;;;;5108971;22;4094;-68
2022/04/10 04:15:14;;;;;;;;;;;;;;;;;;5071458;28;1270;-68
2022/04/10 04:17:41;;;;;;;;;;;;;;;;;;5070777;28;1549;-67
2022/04/10 04:20:08;;;;;;;;;;;;;;;;;;5072974;28;807;-66
2022/04/10 04:22:34;;;;;;;;;;;;;;;;;;5070205;28;1736;-67
2022/04/10 04:25:01;;;;;;;;;;;;;;;;;;5067578;28;2033;-68
2022/04/10 04:27:29;;;;;;;;;;;;;;;;;;5071903;28;1894;-68
2022/04/10 04:29:55;;;;;;;;;;;;;;;;;;5072393;28;1689;-67
2022/04/10 04:32:23;;;;;;;;;;;;;;;;;;5071278;28;1484;-68
2022/04/10 04:34:49;;;;;;;;;;;;;;;;;;5072126;28;1349;-67
2022/04/10 04:37:15;;;;;;;;;;;;;;;;;;5071985;28;961;-67
2022/04/10 04:39:42;;;;;;;;;;;;;;;;;;5072020;28;1539;-68
2022/04/10 04:42:09;;;;;;;;;;;;;;;;;;5072110;28;1787;-68
2022/04/10 04:44:35;;;;;;;;;;;;;;;;;;5072084;28;1547;-68
2022/04/10 04:47:01;;;;;;;;;;;;;;;;;;5071940;28;1919;-68
2022/04/10 04:49:29;;;;;;;;;;;;;;;;;;5070494;28;885;-67
2022/04/10 04:51:56;;;;;;;;;;;;;;;;;;5070180;28;1566;-68
2022/04/10 04:54:23;;;;;;;;;;;;;;;;;;5069941;28;1327;-68
2022/04/10 04:56:50;;;;;;;;;;;;;;;;;;5069360;28;1463;-68
2022/04/10 04:59:16;;;;;;;;;;;;;;;;;;5062254;28;1435;-68
2022/04/10 05:01:43;;;;;;;;;;;;;;;;;;5070815;28;1430;-67
2022/04/10 05:04:10;;;;;;;;;;;;;;;;;;5067598;28;1398;-67
2022/04/10 05:06:38;;;;;;;;;;;;;;;;;;5055246;28;1355;-68
2022/04/10 05:09:06;;;;;;;;;;;;;;;;;;5057774;28;1914;-67
2022/04/10 05:11:32;;;;;;;;;;;;;;;;;;5055542;28;1737;-67
2022/04/10 05:13:58;;;;;;;;;;;;;;;;;;5050588;28;1410;-67
2022/04/10 05:16:25;;;;;;;;;;;;;;;;;;5050528;28;1621;-68
2022/04/10 05:18:52;;;;;;;;;;;;;;;;;;5049523;28;1568;-67
2022/04/10 05:21:22;;;;;;;;;;;;;;;;;;5053767;28;1587;-68
2022/04/10 05:23:50;;;;;;;;;;;;;;;;;;5069222;28;1357;-67
2022/04/10 05:26:19;;;;;;;;;;;;;;;;;;5067326;28;1577;-68
2022/04/10 05:28:51;;;;;;;;;;;;;;;;;;5069171;28;1918;-68
2022/04/10 05:31:18;;;;;;;;;;;;;;;;;;5065738;28;1431;-68
2022/04/10 05:33:47;;;;;;;;;;;;;;;;;;5049851;28;1549;-68
2022/04/10 05:36:17;;;;;;;;;;;;;;;;;;5048851;28;1747;-68
2022/04/10 05:38:46;;;;;;;;;;;;;;;;;;5047747;28;1625;-67
2022/04/10 05:41:15;;;;;;;;;;;;;;;;;;5049011;28;1306;-68
2022/04/10 05:43:46;;;;;;;;;;;;;;;;;;5049392;28;1570;-67
2022/04/10 05:46:13;;;;;;;;;;;;;;;;;;5048717;28;1098;-68
2022/04/10 05:48:40;;;;;;;;;;;;;;;;;;5049468;28;1913;-68
2022/04/10 05:51:07;;;;;;;;;;;;;;;;;;5049745;28;1549;-67
2022/04/10 05:53:35;;;;;;;;;;;;;;;;;;5062853;28;1445;-68
2022/04/10 05:56:03;;;;;;;;;;;;;;;;;;5074970;28;1533;-68
2022/04/10 05:58:37;;;;;;;;;;;;;;;;;;5067544;28;1600;-68
2022/04/10 06:01:03;;;;;;;;;;;;;;;;;;5048601;28;1604;-67
2022/04/10 06:03:30;;;;;;;;;;;;;;;;;;5066204;28;1494;-68
2022/04/10 06:05:59;;;;;;;;;;;;;;;;;;5048394;28;1265;-68
2022/04/10 06:08:33;;;;;;;;;;;;;;;;;;5049863;28;1977;-66
2022/04/10 06:11:00;;;;;;;;;;;;;;;;;;5050476;28;1502;-67
2022/04/10 06:13:27;;;;;;;;;;;;;;;;;;5048443;28;1570;-66
2022/04/10 06:16:02;;;;;;;;;;;;;;;;;;5048393;28;1407;-67
2022/04/10 06:18:28;;;;;;;;;;;;;;;;;;5061996;28;1894;-66
2022/04/10 06:20:57;;;;;;;;;;;;;;;;;;5067894;28;1388;-66
2022/04/10 06:23:25;;;;;;;;;;;;;;;;;;5067919;28;1388;-65
2022/04/10 06:25:58;;;;;;;;;;;;;;;;;;5064602;28;2118;-66
2022/04/10 06:28:25;;;;;;;;;;;;;;;;;;5047711;28;1910;-67
2022/04/10 06:30:51;;;;;;;;;;;;;;;;;;5056559;28;1486;-67
2022/04/10 06:33:24;;;;;;;;;;;;;;;;;;5062374;28;1503;-67
2022/04/10 06:35:54;;;;;;;;;;;;;;;;;;5048373;28;1569;-66
2022/04/10 06:38:20;;;;;;;;;;;;;;;;;;5049027;28;1600;-68
2022/04/10 06:40:52;;;;;;;;;;;;;;;;;;5067636;28;1375;-68
2022/04/10 06:43:20;;;;;;;;;;;;;;;;;;5059448;28;1577;-67
2022/04/10 06:46:06;;;;;;;;;;;;;;;;;;5061374;28;1558;-66
2022/04/10 06:48:40;;;;;;;;;;;;;;;;;;5057331;28;1906;-67
2022/04/10 06:51:06;;;;;;;;;;;;;;;;;;5053474;28;1578;-67
2022/04/10 06:53:32;;;;;;;;;;;;;;;;;;5066995;28;1639;-68
2022/04/10 06:55:59;;;;;;;;;;;;;;;;;;5048045;28;1467;-68
2022/04/10 06:58:29;;;;;;;;;;;;;;;;;;5048507;28;1972;-68
2022/04/10 07:00:57;;;;;;;;;;;;;;;;;;5048739;28;1661;-67
2022/04/10 07:03:23;;;;;;;;;;;;;;;;;;5067926;28;1542;-68
2022/04/10 07:05:51;;;;;;;;;;;;;;;;;;5069411;28;830;-67
2022/04/10 07:08:26;;;;;;;;;;;;;;;;;;5069223;28;1985;-68
2022/04/10 07:10:52;;;;;;;;;;;;;;;;;;5069251;28;1258;-67
2022/04/10 07:13:20;;;;;;;;;;;;;;;;;;5069605;28;1474;-67
2022/04/10 07:15:50;;;;;;;;;;;;;;;;;;5069307;28;1167;-67
2022/04/10 07:18:16;;;;;;;;;;;;;;;;;;5070623;28;767;-68
2022/04/10 07:20:43;;;;;;;;;;;;;;;;;;5069391;28;1272;-67
2022/04/10 07:25:55;;;;;;;;;;;;;;;;;;5069115;28;1294;-68
2022/04/10 07:28:22;;;;;;;;;;;;;;;;;;5069301;28;1978;-68
2022/04/10 07:30:55;;;;;;;;;;;;;;;;;;5069417;28;1485;-67
2022/04/10 07:33:22;;;;;;;;;;;;;;;;;;5069550;28;1441;-67
2022/04/10 07:35:55;;;;;;;;;;;;;;;;;;5073644;28;998;-68
2022/04/10 07:38:31;;;;;;;;;;;;;;;;;;5073531;28;1355;-68
2022/04/10 07:41:01;;;;;;;;;;;;;;;;;;5073282;28;1327;-67
2022/04/10 07:43:37;;;;;;;;;;;;;;;;;;5073180;28;1329;-68
2022/04/10 07:48:52;;;;;;;;;;;;;;;;;;5073039;28;1979;-68
2022/04/10 07:51:22;;;;;;;;;;;;;;;;;;5073121;28;1422;-67
2022/04/10 07:53:58;;;;;;;;;;;;;;;;;;5073088;28;1517;-67
2022/04/10 07:56:25;;;;;;;;;;;;;;;;;;5072795;28;1386;-68
2022/04/10 07:58:52;;;;;;;;;;;;;;;;;;5072474;28;1319;-68
2022/04/10 08:01:24;;;;;;;;;;;;;;;;;;5072975;28;1379;-68
2022/04/10 08:03:53;;;;;;;;;;;;;;;;;;5072783;28;1334;-68
2022/04/10 08:06:39;;;;;;;;;;;;;;;;;;5073746;28;1236;-68
2022/04/10 08:09:07;;;;;;;;;;;;;;;;;;5074113;28;1909;-68
2022/04/10 08:11:33;;;;;;;;;;;;;;;;;;5073945;28;771;-68
2022/04/10 08:13:59;;;;;;;;;;;;;;;;;;5073894;28;1384;-68
2022/04/10 08:16:25;;;;;;;;;;;;;;;;;;5073512;28;885;-68
2022/04/10 08:18:52;;;;;;;;;;;;;;;;;;5071867;28;1419;-69
2022/04/10 08:21:19;;;;;;;;;;;;;;;;;;5072813;28;1506;-68
2022/04/10 08:23:45;;;;;;;;;;;;;;;;;;5073765;28;1400;-68
2022/04/10 08:26:12;;;;;;;;;;;;;;;;;;5074127;28;1220;-68
2022/04/10 08:28:39;;;;;;;;;;;;;;;;;;5059046;28;1968;-68
2022/04/10 08:31:05;;;;;;;;;;;;;;;;;;5054688;28;1608;-68
2022/04/10 08:33:31;;;;;;;;;;;;;;;;;;5061829;28;2268;-68
2022/04/10 08:35:58;;;;;;;;;;;;;;;;;;5063820;28;2309;-67
2022/04/10 08:38:24;;;;;;;;;;;;;;;;;;5061006;28;1227;-67
2022/04/10 08:40:50;;;;;;;;;;;;;;;;;;5068896;28;1521;-67
2022/04/10 08:43:18;;;;;;;;;;;;;;;;;;5066491;28;1640;-67
2022/04/10 08:45:44;;;;;;;;;;;;;;;;;;5064096;28;1689;-68
2022/04/10 08:48:10;;;;;;;;;;;;;;;;;;5053522;28;1926;-67
2022/04/10 08:50:37;;;;;;;;;;;;;;;;;;5052786;28;861;-67
2022/04/10 08:53:03;;;;;;;;;;;;;;;;;;5053904;28;1538;-67
2022/04/10 08:55:29;;;;;;;;;;;;;;;;;;5055098;28;1541;-67
2022/04/10 08:57:56;;;;;;;;;;;;;;;;;;5054576;28;1526;-67
2022/04/10 09:00:23;;;;;;;;;;;;;;;;;;5070623;28;1507;-68
2022/04/10 09:02:50;;;;;;;;;;;;;;;;;;5063594;28;1438;-67
2022/04/10 09:05:17;;;;;;;;;;;;;;;;;;5052711;28;794;-67
2022/04/10 09:07:44;;;;;;;;;;;;;;;;;;5054824;28;1654;-67
2022/04/10 09:10:11;;;;;;;;;;;;;;;;;;5068914;28;1979;-67
2022/04/10 09:12:38;;;;;;;;;;;;;;;;;;5054152;28;1424;-67
2022/04/10 09:15:04;;;;;;;;;;;;;;;;;;5054268;28;1629;-66
2022/04/10 09:17:32;;;;;;;;;;;;;;;;;;5067579;28;1619;-67
2022/04/10 09:20:00;;;;;;;;;;;;;;;;;;5066195;28;1568;-65
2022/04/10 09:22:27;;;;;;;;;;;;;;;;;;5069878;28;1401;-67
2022/04/10 09:25:07;;;;;;;;;;;;;;;;;;5057040;28;1545;-67
2022/04/10 09:27:33;;;;;;;;;;;;;;;;;;5049855;28;1088;-66
2022/04/10 09:30:00;;;;;;;;;;;;;;;;;;5050747;28;2354;-67
2022/04/10 09:32:38;;;;;;;;;;;;;;;;;;5053369;28;1611;-67
2022/04/10 09:35:04;;;;;;;;;;;;;;;;;;5068602;28;1647;-64
2022/04/10 09:37:33;;;;;;;;;;;;;;;;;;5067872;28;1584;-67
2022/04/10 09:40:13;;;;;;;;;;;;;;;;;;5057377;28;1263;-67
2022/04/10 09:42:41;;;;;;;;;;;;;;;;;;5051687;28;1839;-67
2022/04/10 09:45:07;;;;;;;;;;;;;;;;;;5049902;28;1007;-67
2022/04/10 09:47:33;;;;;;;;;;;;;;;;;;5051681;28;1533;-67
2022/04/10 09:50:06;;;;;;;;;;;;;;;;;;5049426;28;1971;-67
2022/04/10 09:52:32;;;;;;;;;;;;;;;;;;5058126;28;1568;-67
2022/04/10 09:54:58;;;;;;;;;;;;;;;;;;5067234;28;2055;-67
2022/04/10 09:57:25;;;;;;;;;;;;;;;;;;5066793;28;1557;-67
2022/04/10 09:59:51;;;;;;;;;;;;;;;;;;5067198;28;1413;-68
2022/04/10 10:02:18;;;;;;;;;;;;;;;;;;5068001;28;1596;-67
2022/04/10 10:04:45;;;;;;;;;;;;;;;;;;5068675;28;1545;-67
2022/04/10 10:07:15;;;;;;;;;;;;;;;;;;5067205;28;1722;-68
2022/04/10 10:09:41;;;;;;;;;;;;;;;;;;5064062;28;1989;-65
2022/04/10 10:12:08;;;;;;;;;;;;;;;;;;5051341;28;1592;-65
2022/04/10 10:14:35;;;;;;;;;;;;;;;;;;5049845;28;732;-65
2022/04/10 10:17:02;;;;;;;;;;;;;;;;;;5064306;28;1576;-65
2022/04/10 10:19:29;;;;;;;;;;;;;;;;;;5061824;28;1588;-67
2022/04/10 10:21:56;;;;;;;;;;;;;;;;;;5061459;28;1553;-65
2022/04/10 10:24:24;;;;;;;;;;;;;;;;;;5062246;28;1572;-67
2022/04/10 10:26:55;;;;;;;;;;;;;;;;;;5049444;28;1012;-68
2022/04/10 10:29:25;;;;;;;;;;;;;;;;;;5055640;28;2337;-68
2022/04/10 10:31:55;;;;;;;;;;;;;;;;;;5053836;28;1442;-67
2022/04/10 10:34:22;;;;;;;;;;;;;;;;;;5061180;23;2022;-68
2022/04/10 10:36:48;;;;;;;;;;;;;;;;;;5049674;28;1071;-68
2022/04/10 10:39:14;;;;;;;;;;;;;;;;;;5034815;28;1636;-68
2022/04/10 10:41:43;;;;;;;;;;;;;;;;;;5032601;28;1752;-67
2022/04/10 10:44:18;;;;;;;;;;;;;;;;;;5030519;28;1721;-69
2022/04/10 10:46:58;;;;;;;;;;;;;;;;;;5050520;28;1613;-68
2022/04/10 10:49:24;;;;;;;;;;;;;;;;;;5050443;28;1969;-69
2022/04/10 10:51:50;;;;;;;;;;;;;;;;;;5050800;28;1604;-69
2022/04/10 10:54:20;;;;;;;;;;;;;;;;;;5050752;28;1295;-69
2022/04/10 10:56:50;;;;;;;;;;;;;;;;;;5050449;28;1223;-68
2022/04/10 10:59:23;;;;;;;;;;;;;;;;;;5049872;28;1625;-70
2022/04/10 11:01:56;;;;;;;;;;;;;;;;;;5050561;28;1748;-67
2022/04/10 11:04:23;;;;;;;;;;;;;;;;;;5029662;28;1317;-69
2022/04/10 11:06:50;;;;;;;;;;;;;;;;;;5031026;28;1130;-68
2022/04/10 11:09:20;;;;;;;;;;;;;;;;;;5050109;28;1983;-68
2022/04/10 11:11:48;;;;;;;;;;;;;;;;;;5050580;28;929;-69
2022/04/10 11:14:33;;;;;;;;;;;;;;;;;;5050557;28;1629;-68
2022/04/10 11:17:09;;;;;;;;;;;;;;;;;;5050337;28;1526;-69
2022/04/10 11:19:35;;;;;;;;;;;;;;;;;;5050686;28;951;-69
2022/04/10 11:22:02;;;;;;;;;;;;;;;;;;5050000;28;1597;-68
2022/04/10 11:24:28;;;;;;;;;;;;;;;;;;5048825;28;1602;-68
2022/04/10 11:26:55;;;;;;;;;;;;;;;;;;5050016;28;1546;-68
2022/04/10 11:29:21;;;;;;;;;;;;;;;;;;5050589;28;1918;-69
2022/04/10 11:31:51;;;;;;;;;;;;;;;;;;5050173;28;1593;-69
2022/04/10 11:34:19;;;;;;;;;;;;;;;;;;5049906;28;1951;-69
2022/04/10 11:36:52;;;;;;;;;;;;;;;;;;5049862;28;1589;-68
2022/04/10 11:39:21;;;;;;;;;;;;;;;;;;5050425;28;1068;-69
2022/04/10 11:41:47;;;;;;;;;;;;;;;;;;5049703;28;1656;-70
2022/04/10 11:44:15;;;;;;;;;;;;;;;;;;5050015;28;2197;-70
2022/04/10 11:46:41;;;;;;;;;;;;;;;;;;5049865;28;1652;-70
2022/04/10 11:49:08;;;;;;;;;;;;;;;;;;5049392;28;1914;-70
2022/04/10 11:51:39;;;;;;;;;;;;;;;;;;5050023;28;1647;-70
2022/04/10 11:54:05;;;;;;;;;;;;;;;;;;5049855;28;1640;-70
2022/04/10 11:56:32;;;;;;;;;;;;;;;;;;5050137;28;1067;-71
2022/04/10 11:58:58;;;;;;;;;;;;;;;;;;5049876;28;1593;-71
2022/04/10 12:01:25;;;;;;;;;;;;;;;;;;5048732;28;1640;-71
2022/04/10 12:03:52;;;;;;;;;;;;;;;;;;5049592;28;1589;-68
2022/04/10 12:06:21;;;;;;;;;;;;;;;;;;5044671;28;1903;-70
2022/04/10 12:08:47;;;;;;;;;;;;;;;;;;5033192;28;1535;-70
2022/04/10 12:11:13;;;;;;;;;;;;;;;;;;5036530;28;1979;-70
2022/04/10 12:13:39;;;;;;;;;;;;;;;;;;5048061;28;1313;-70
2022/04/10 12:16:09;;;;;;;;;;;;;;;;;;5047412;28;1518;-70
2022/04/10 12:18:48;;;;;;;;;;;;;;;;;;5046958;28;1545;-70
2022/04/10 12:21:15;;;;;;;;;;;;;;;;;;5049297;28;1609;-70
2022/04/10 12:23:41;;;;;;;;;;;;;;;;;;5050772;28;1545;-71
2022/04/10 12:26:08;;;;;;;;;;;;;;;;;;5050672;28;1597;-70
2022/04/10 12:28:34;;;;;;;;;;;;;;;;;;5044817;28;1731;-69
2022/04/10 12:31:00;;;;;;;;;;;;;;;;;;5051032;28;1918;-72
2022/04/10 12:33:27;;;;;;;;;;;;;;;;;;5051024;28;1546;-70
2022/04/10 12:35:54;;;;;;;;;;;;;;;;;;5051163;28;1542;-71
2022/04/10 12:38:20;;;;;;;;;;;;;;;;;;5051096;28;1537;-70
2022/04/10 12:40:46;;;;;;;;;;;;;;;;;;5051061;28;1017;-70
2022/04/10 12:43:13;;;;;;;;;;;;;;;;;;5051091;28;1611;-68
2022/04/10 12:45:40;;;;;;;;;;;;;;;;;;5051253;28;1565;-71
2022/04/10 12:48:19;;;;;;;;;;;;;;;;;;5050130;28;1542;-69
2022/04/10 12:50:45;;;;;;;;;;;;;;;;;;5050753;28;1914;-68
2022/04/10 12:53:13;;;;;;;;;;;;;;;;;;5047095;28;1565;-69
2022/04/10 12:55:39;;;;;;;;;;;;;;;;;;5044868;28;1383;-69
2022/04/10 12:58:06;;;;;;;;;;;;;;;;;;5030609;28;1017;-69
2022/04/10 13:00:33;;;;;;;;;;;;;;;;;;5030895;28;948;-69
2022/04/10 13:03:00;;;;;;;;;;;;;;;;;;5047673;28;1554;-69
2022/04/10 13:05:26;;;;;;;;;;;;;;;;;;5050669;28;949;-69
2022/04/10 13:07:56;;;;;;;;;;;;;;;;;;5046149;28;1143;-69
2022/04/10 13:10:24;;;;;;;;;;;;;;;;;;5031032;28;1982;-68
2022/04/10 13:12:50;;;;;;;;;;;;;;;;;;5045773;28;1632;-69
2022/04/10 13:15:28;;;;;;;;;;;;;;;;;;5040955;28;1288;-68
2022/04/10 13:17:56;;;;;;;;;;;;;;;;;;5051755;28;1103;-69
2022/04/10 13:20:24;;;;;;;;;;;;;;;;;;5051701;28;1530;-70
2022/04/10 13:22:50;;;;;;;;;;;;;;;;;;5040709;28;1553;-67
2022/04/10 13:25:17;;;;;;;;;;;;;;;;;;5045879;28;1100;-69
2022/04/10 13:27:44;;;;;;;;;;;;;;;;;;5035651;28;1371;-70
2022/04/10 13:30:11;;;;;;;;;;;;;;;;;;5042024;28;1942;-69
2022/04/10 13:32:37;;;;;;;;;;;;;;;;;;5040109;28;1458;-68
2022/04/10 13:35:03;;;;;;;;;;;;;;;;;;5049874;28;1075;-69
2022/04/10 13:37:30;;;;;;;;;;;;;;;;;;5049485;28;1553;-70
2022/04/10 13:39:56;;;;;;;;;;;;;;;;;;5050065;28;1601;-69
2022/04/10 13:42:23;;;;;;;;;;;;;;;;;;5050534;28;1000;-71
2022/04/10 13:44:51;;;;;;;;;;;;;;;;;;5051460;28;1679;-70
2022/04/10 13:47:17;;;;;;;;;;;;;;;;;;5049767;28;944;-68
2022/04/10 13:49:44;;;;;;;;;;;;;;;;;;5046206;28;1327;-68
2022/04/10 13:52:10;;;;;;;;;;;;;;;;;;5046302;28;2094;-68
2022/04/10 13:54:36;;;;;;;;;;;;;;;;;;5049812;28;1435;-69
2022/04/10 13:57:02;;;;;;;;;;;;;;;;;;5049802;28;1088;-69
2022/04/10 13:59:29;;;;;;;;;;;;;;;;;;5038070;28;1352;-69
2022/04/10 14:01:56;;;;;;;;;;;;;;;;;;5040570;28;1442;-69
2022/04/10 14:04:22;;;;;;;;;;;;;;;;;;5049397;28;1404;-69
2022/04/10 14:06:49;;;;;;;;;;;;;;;;;;5047777;28;1598;-68
2022/04/10 14:09:15;;;;;;;;;;;;;;;;;;5049223;28;1055;-68
2022/04/10 14:11:41;;;;;;;;;;;;;;;;;;5046345;28;1981;-70
2022/04/10 14:14:07;;;;;;;;;;;;;;;;;;5049165;28;1435;-68
2022/04/10 14:16:33;;;;;;;;;;;;;;;;;;5047503;28;1506;-68
2022/04/10 14:19:01;;;;;;;;;;;;;;;;;;5045675;28;1447;-69
2022/04/10 14:21:27;;;;;;;;;;;;;;;;;;5045655;28;1603;-69
2022/04/10 14:23:53;;;;;;;;;;;;;;;;;;5047759;28;1561;-69
2022/04/10 14:26:20;;;;;;;;;;;;;;;;;;5048530;28;1652;-69
2022/04/10 14:28:46;;;;;;;;;;;;;;;;;;5046644;28;1573;-67
2022/04/10 14:31:12;;;;;;;;;;;;;;;;;;5044280;28;1906;-69
2022/04/10 14:33:38;;;;;;;;;;;;;;;;;;5050292;28;1585;-68
2022/04/10 14:36:06;;;;;;;;;;;;;;;;;;5047775;28;1877;-68
2022/04/10 14:38:32;;;;;;;;;;;;;;;;;;5049378;28;1466;-68
2022/04/10 14:40:58;;;;;;;;;;;;;;;;;;5050189;28;1561;-69
2022/04/10 14:43:25;;;;;;;;;;;;;;;;;;5050287;28;1632;-69
2022/04/10 14:45:51;;;;;;;;;;;;;;;;;;5050924;28;996;-70
2022/04/10 14:48:17;;;;;;;;;;;;;;;;;;5050529;28;1711;-69
2022/04/10 14:50:43;;;;;;;;;;;;;;;;;;5050409;28;1918;-70
2022/04/10 14:53:11;;;;;;;;;;;;;;;;;;5050482;28;1633;-69
2022/04/10 14:55:37;;;;;;;;;;;;;;;;;;5049523;28;1428;-69
2022/04/10 14:58:03;;;;;;;;;;;;;;;;;;5050147;28;1596;-69
2022/04/10 15:00:29;;;;;;;;;;;;;;;;;;5055461;28;1613;-69
2022/04/10 15:02:56;;;;;;;;;;;;;;;;;;5050668;28;1593;-70
2022/04/10 15:05:23;;;;;;;;;;;;;;;;;;5047345;28;1509;-70
2022/04/10 15:07:51;;;;;;;;;;;;;;;;;;5048897;28;1346;-70
2022/04/10 15:10:19;;;;;;;;;;;;;;;;;;5050786;28;1914;-70
2022/04/10 15:12:45;;;;;;;;;;;;;;;;;;5048401;28;1637;-70
2022/04/10 15:15:11;;;;;;;;;;;;;;;;;;5050422;28;1648;-70
2022/04/10 15:17:38;;;;;;;;;;;;;;;;;;5050380;28;1679;-69
2022/04/10 15:20:05;;;;;;;;;;;;;;;;;;5050497;28;1566;-69
2022/04/10 15:22:32;;;;;;;;;;;;;;;;;;5050268;28;1641;-69
2022/04/10 15:24:58;;;;;;;;;;;;;;;;;;5049436;28;1432;-70
2022/04/10 15:27:25;;;;;;;;;;;;;;;;;;5060801;28;1563;-69
2022/04/10 15:29:51;;;;;;;;;;;;;;;;;;5048358;28;872;-70
2022/04/10 15:32:18;;;;;;;;;;;;;;;;;;5048242;28;1991;-70
2022/04/10 15:34:44;;;;;;;;;;;;;;;;;;5047895;28;1361;-70
2022/04/10 15:37:12;;;;;;;;;;;;;;;;;;5047817;28;1339;-70
2022/04/10 15:39:38;;;;;;;;;;;;;;;;;;5048236;28;1115;-70
2022/04/10 15:42:05;;;;;;;;;;;;;;;;;;5047732;28;1509;-69
2022/04/10 15:44:32;;;;;;;;;;;;;;;;;;5046305;28;1331;-68
2022/04/10 15:46:58;;;;;;;;;;;;;;;;;;5045704;28;1593;-68
2022/04/10 15:49:24;;;;;;;;;;;;;;;;;;5048324;28;1122;-69
2022/04/10 15:51:51;;;;;;;;;;;;;;;;;;5044232;28;1907;-69
2022/04/10 15:54:17;;;;;;;;;;;;;;;;;;5048052;28;1373;-69
2022/04/10 15:56:44;;;;;;;;;;;;;;;;;;5051153;28;1526;-69
2022/04/10 15:59:10;;;;;;;;;;;;;;;;;;5051012;28;1538;-68
2022/04/10 16:01:37;;;;;;;;;;;;;;;;;;5051421;28;1530;-68
2022/04/10 16:04:04;;;;;;;;;;;;;;;;;;5047539;28;1565;-69
2022/04/10 16:06:30;;;;;;;;;;;;;;;;;;5050922;28;1723;-69
2022/04/10 16:08:56;;;;;;;;;;;;;;;;;;5050964;28;1531;-69
2022/04/10 16:11:22;;;;;;;;;;;;;;;;;;5051117;28;1970;-69
2022/04/10 16:13:49;;;;;;;;;;;;;;;;;;5050886;28;1334;-69
2022/04/10 16:16:15;;;;;;;;;;;;;;;;;;5050887;28;1569;-68
2022/04/10 16:18:43;;;;;;;;;;;;;;;;;;5049033;28;1467;-68
2022/04/10 16:21:10;;;;;;;;;;;;;;;;;;5033788;28;1363;-68
2022/04/10 16:23:36;;;;;;;;;;;;;;;;;;5035110;28;1435;-69
2022/04/10 16:26:03;;;;;;;;;;;;;;;;;;5050800;28;1084;-69
2022/04/10 16:31:13;;;;;;;;;;;;;;;;;;5050108;28;1966;-69
2022/04/10 16:36:21;;;;;;;;;;;;;;;;;;5049948;28;1287;-69
2022/04/10 16:38:47;;;;;;;;;;;;;;;;;;5050206;28;1244;-69
2022/04/10 16:41:13;;;;;;;;;;;;;;;;;;5050562;28;1557;-69
2022/04/10 16:43:40;;;;;;;;;;;;;;;;;;5048186;28;1573;-69
2022/04/10 16:46:06;;;;;;;;;;;;;;;;;;5050258;28;1474;-69
2022/04/10 16:48:32;;;;;;;;;;;;;;;;;;5050177;28;1585;-69
2022/04/10 16:50:59;;;;;;;;;;;;;;;;;;5050118;28;1973;-68
2022/04/10 16:53:26;;;;;;;;;;;;;;;;;;5049006;28;1586;-69
2022/04/10 16:55:52;;;;;;;;;;;;;;;;;;5050724;28;1064;-68
2022/04/10 16:58:18;;;;;;;;;;;;;;;;;;5050023;28;1549;-68
2022/04/10 17:00:44;;;;;;;;;;;;;;;;;;5051440;28;1031;-68
2022/04/10 17:03:13;;;;;;;;;;;;;;;;;;5048479;28;1565;-69
2022/04/10 17:05:39;;;;;;;;;;;;;;;;;;5046883;28;1566;-69
2022/04/10 17:08:06;;;;;;;;;;;;;;;;;;5049802;28;1141;-68
2022/04/10 17:10:34;;;;;;;;;;;;;;;;;;5050326;28;1117;-68
2022/04/10 17:13:00;;;;;;;;;;;;;;;;;;5049695;28;1981;-69
2022/04/10 17:15:26;;;;;;;;;;;;;;;;;;5050607;28;1529;-68